createdAt,value
2018-08-23T07:27:24.212Z,99266.85
2018-08-23T07:29:00.152Z,99270.42
2018-08-23T07:30:36.116Z,99272.17
2018-08-23T07:32:17.266Z,99271.25
2018-08-23T07:33:53.972Z,99268.87
2018-08-23T07:35:35.176Z,99263.39
2018-08-23T07:37:17.199Z,99266.03
2018-08-23T07:38:54.021Z,99262.72
2018-08-23T07:40:30.104Z,99261.39
2018-08-23T07:42:06.017Z,99259.65
2018-08-23T07:43:42.536Z,99266.70
2018-08-23T07:45:18.609Z,99264.75
2018-08-23T07:46:55.462Z,99265.51
2018-08-23T07:48:31.288Z,99266.27
2018-08-23T07:50:07.531Z,99271.81
2018-08-23T07:51:43.398Z,99270.72
2018-08-23T07:53:20.163Z,99266.73
2018-08-23T07:54:59.092Z,99263.41
2018-08-23T07:56:34.848Z,99265.44
2018-08-23T07:58:10.640Z,99258.58
2018-08-23T07:59:46.370Z,99262.11
2018-08-23T08:01:31.486Z,99259.95
2018-08-23T08:03:08.502Z,99260.20
2018-08-23T08:04:44.582Z,99264.08
2018-08-23T08:06:25.721Z,99255.83
2018-08-23T08:08:02.080Z,99256.14
2018-08-23T08:09:43.188Z,99256.71
2018-08-23T08:11:19.529Z,99258.59
2018-08-23T08:12:55.591Z,99255.13
2018-08-23T08:14:38.295Z,99256.59
2018-08-23T08:16:17.364Z,99250.72
2018-08-23T08:17:53.982Z,99251.95
2018-08-23T08:19:37.893Z,99252.89
2018-08-23T08:21:17.911Z,99255.01
2018-08-23T08:22:54.125Z,99255.38
2018-08-23T08:24:31.210Z,99253.77
2018-08-23T08:26:08.169Z,99251.98
2018-08-23T08:27:45.619Z,99251.52
2018-08-23T08:29:28.705Z,99249.58
2018-08-23T08:31:05.781Z,99247.66
2018-08-23T08:32:42.856Z,99256.72
2018-08-23T08:34:19.564Z,99248.86
2018-08-23T08:36:04.317Z,99248.18
2018-08-23T08:37:42.141Z,99252.05
2018-08-23T08:39:19.132Z,99263.19
2018-08-23T08:40:56.741Z,99243.55
2018-08-23T08:42:33.921Z,99247.18
2018-08-23T08:44:10.385Z,99239.91
2018-08-23T08:45:46.777Z,99238.17
2018-08-23T08:47:22.924Z,99239.89
2018-08-23T08:48:59.157Z,99233.73
2018-08-23T08:50:39.631Z,99234.83
2018-08-23T08:52:16.861Z,99232.16
2018-08-23T08:53:59.443Z,99231.37
2018-08-23T08:55:35.565Z,99229.02
2018-08-23T08:57:11.431Z,99223.23
2018-08-23T08:58:48.165Z,99219.89
2018-08-23T09:00:24.767Z,99225.11
2018-08-23T09:02:02.814Z,99213.08
2018-08-23T09:03:40.356Z,99216.66
2018-08-23T09:05:17.054Z,99211.47
2018-08-23T09:06:54.590Z,99208.97
2018-08-23T09:08:31.747Z,99208.78
2018-08-23T09:10:09.405Z,99204.72
2018-08-23T09:11:45.952Z,99202.51
2018-08-23T09:13:28.259Z,99200.75
2018-08-23T09:15:04.402Z,99203.99
2018-08-23T09:16:40.161Z,99196.22
2018-08-23T09:18:16.204Z,99194.95
2018-08-23T09:20:05.500Z,99198.69
2018-08-23T09:21:45.796Z,99189.96
2018-08-23T09:23:22.077Z,99186.92
2018-08-23T09:24:58.057Z,99190.86
2018-08-23T09:26:38.604Z,99184.73
2018-08-23T09:28:16.929Z,99176.38
2018-08-23T09:29:53.293Z,99179.17
2018-08-23T09:31:29.432Z,99177.41
2018-08-23T09:33:08.293Z,99176.91
2018-08-23T09:34:44.039Z,99180.95
2018-08-23T09:36:20.158Z,99183.41
2018-08-23T09:37:58.394Z,99186.51
2018-08-23T09:39:34.825Z,99179.37
2018-08-23T09:41:11.303Z,99175.63
2018-08-23T09:42:49.159Z,99168.69
2018-08-23T09:44:26.757Z,99161.66
2018-08-23T09:46:03.576Z,99164.50
2018-08-23T09:47:42.305Z,99155.64
2018-08-23T09:49:22.975Z,99154.61
2018-08-23T09:50:59.848Z,99165.89
2018-08-23T09:52:40.002Z,99169.84
2018-08-23T09:54:20.660Z,99154.23
2018-08-23T09:55:57.961Z,99159.12
2018-08-23T09:57:36.155Z,99158.06
2018-08-23T09:59:25.316Z,99157.23
2018-08-23T10:01:08.407Z,99145.56
2018-08-23T10:02:51.854Z,99143.30
2018-08-23T10:04:33.338Z,99144.41
2018-08-23T10:06:14.606Z,99145.36
2018-08-23T10:07:55.897Z,99139.97
2018-08-23T10:09:36.631Z,99138.74
2018-08-23T10:11:20.787Z,99136.70
2018-08-23T10:13:02.453Z,99135.17
2018-08-23T10:14:43.898Z,99126.39
2018-08-23T10:16:25.837Z,99125.84
2018-08-23T10:18:06.959Z,99127.00
2018-08-23T10:19:48.452Z,99123.17
2018-08-23T10:21:29.776Z,99116.56
2018-08-23T10:23:11.396Z,99116.02
2018-08-23T10:24:47.213Z,99114.91
2018-08-23T10:26:30.791Z,99109.05
2018-08-23T10:28:07.298Z,99112.70
2018-08-23T10:29:42.963Z,99111.89
2018-08-23T10:31:18.977Z,99110.81
2018-08-23T10:32:54.924Z,99112.80
2018-08-23T10:34:32.150Z,99108.39
2018-08-23T10:36:08.239Z,99107.16
2018-08-23T10:37:44.531Z,99102.30
2018-08-23T10:39:20.227Z,99099.88
2018-08-23T10:41:02.302Z,99103.67
2018-08-23T10:42:37.955Z,99100.22
2018-08-23T10:44:14.660Z,99091.33
2018-08-23T10:45:51.091Z,99093.23
2018-08-23T10:47:32.175Z,99092.98
2018-08-23T10:49:07.786Z,99086.27
2018-08-23T10:50:43.885Z,99089.93
2018-08-23T10:52:21.340Z,99093.37
2018-08-23T10:53:59.013Z,99084.03
2018-08-23T10:55:34.701Z,99075.47
2018-08-23T10:57:15.840Z,99077.75
2018-08-23T10:58:51.673Z,99079.95
2018-08-23T11:00:27.766Z,99077.80
2018-08-23T11:02:03.590Z,99079.66
2018-08-23T11:03:40.294Z,99076.34
2018-08-23T11:05:17.059Z,99081.86
2018-08-23T11:07:00.628Z,99075.09
2018-08-23T11:08:40.232Z,99071.00
2018-08-23T11:10:21.705Z,99068.97
2018-08-23T11:11:57.699Z,99065.46
2018-08-23T11:13:39.176Z,99072.59
2018-08-23T11:15:21.609Z,99067.64
2018-08-23T11:17:02.997Z,99066.24
2018-08-23T11:18:44.322Z,99064.02
2018-08-23T11:20:27.751Z,99057.74
2018-08-23T11:22:06.263Z,99057.96
2018-08-23T11:23:46.272Z,99067.80
2018-08-23T11:25:25.267Z,99055.00
2018-08-23T11:27:01.326Z,99053.89
2018-08-23T11:28:38.412Z,99055.84
2018-08-23T11:30:14.294Z,99055.91
2018-08-23T11:31:50.623Z,99046.02
2018-08-23T11:33:26.230Z,99042.14
2018-08-23T11:35:01.957Z,99047.59
2018-08-23T11:36:37.663Z,99051.64
2018-08-23T11:38:13.368Z,99042.18
2018-08-23T11:39:49.081Z,99048.02
2018-08-23T11:41:24.722Z,99044.00
2018-08-23T11:43:00.574Z,99032.01
2018-08-23T11:44:36.673Z,99038.48
2018-08-23T11:46:17.511Z,99042.98
2018-08-23T11:47:53.140Z,99042.78
2018-08-23T11:49:29.181Z,99036.31
2018-08-23T11:51:09.034Z,99042.87
2018-08-23T11:52:46.760Z,99045.89
2018-08-23T11:54:22.552Z,99045.66
2018-08-23T11:55:58.774Z,99045.94
2018-08-23T11:57:39.190Z,99049.21
2018-08-23T11:59:19.863Z,99053.05
2018-08-23T12:01:02.130Z,99052.99
2018-08-23T12:02:41.324Z,99057.61
2018-08-23T12:04:16.963Z,99061.13
2018-08-23T12:06:02.185Z,99057.56
2018-08-23T12:07:42.491Z,99055.16
2018-08-23T12:09:18.125Z,99055.96
2018-08-23T12:10:54.905Z,99052.19
2018-08-23T12:12:31.749Z,99047.84
2018-08-23T12:14:07.464Z,99041.03
2018-08-23T12:17:32.975Z,99034.50
2018-08-23T12:19:14.695Z,99030.41
2018-08-23T12:20:50.204Z,99029.59
2018-08-23T12:22:32.429Z,99025.25
2018-08-23T12:24:09.771Z,99028.47
2018-08-23T12:25:45.654Z,99025.19
2018-08-23T12:27:24.952Z,99026.50
2018-08-23T12:29:06.315Z,99019.69
2018-08-23T12:30:42.485Z,99021.75
2018-08-23T12:32:18.270Z,99020.69
2018-08-23T12:33:55.121Z,99011.71
2018-08-23T12:35:32.828Z,99014.24
2018-08-23T12:37:16.326Z,99010.44
2018-08-23T12:38:57.528Z,99014.25
2018-08-23T12:40:40.984Z,99008.53
2018-08-23T12:42:22.957Z,99004.97
2018-08-23T12:44:00.159Z,99000.89
2018-08-23T12:45:42.373Z,99005.78
2018-08-23T12:47:19.230Z,99001.13
2018-08-23T12:48:59.306Z,98999.21
2018-08-23T12:50:39.750Z,99005.71
2018-08-23T12:52:16.389Z,99007.88
2018-08-23T12:53:57.158Z,99005.19
2018-08-23T12:55:34.352Z,99000.56
2018-08-23T12:57:14.422Z,98997.26
2018-08-23T12:58:50.543Z,98998.62
2018-08-23T13:00:26.976Z,98993.20
2018-08-23T13:02:03.245Z,98995.37
2018-08-23T13:03:41.643Z,98990.73
2018-08-23T13:05:20.504Z,98986.13
2018-08-23T13:06:56.710Z,98984.77
2018-08-23T13:08:32.420Z,98985.03
2018-08-23T13:10:08.112Z,98981.84
2018-08-23T13:11:44.596Z,98984.00
2018-08-23T13:13:21.268Z,98982.92
2018-08-23T13:14:57.157Z,98980.41
2018-08-23T13:16:33.323Z,98977.21
2018-08-23T13:18:10.245Z,98972.32
2018-08-23T13:19:46.879Z,98974.53
2018-08-23T13:21:22.915Z,98972.63
2018-08-23T13:22:59.206Z,98964.16
2018-08-23T13:24:41.178Z,98961.89
2018-08-23T13:26:16.932Z,98947.38
2018-08-23T13:27:53.660Z,98946.49
2018-08-23T13:29:29.305Z,98940.73
2018-08-23T13:31:05.521Z,98942.98
2018-08-23T13:32:41.619Z,98936.20
2018-08-23T13:34:17.333Z,98930.20
2018-08-23T13:35:52.978Z,98935.71
2018-08-23T13:37:29.134Z,98930.85
2018-08-23T13:39:08.346Z,98933.59
2018-08-23T13:40:44.039Z,98936.05
2018-08-23T13:42:21.174Z,98940.45
2018-08-23T13:43:56.820Z,98954.38
2018-08-23T13:45:32.617Z,98980.78
2018-08-23T13:47:08.352Z,99070.80
2018-08-23T13:48:44.428Z,99037.62
2018-08-23T13:50:20.707Z,99028.30
2018-08-23T13:51:58.419Z,99067.59
2018-08-23T13:53:34.285Z,99080.73
2018-08-23T13:55:10.052Z,99117.23
2018-08-23T13:56:46.176Z,99116.46
2018-08-23T13:58:25.493Z,99150.51
2018-08-23T14:00:09.970Z,99157.61
2018-08-23T14:01:48.175Z,99190.23
2018-08-23T14:03:23.945Z,99193.52
2018-08-23T14:04:59.935Z,99200.79
2018-08-23T14:06:37.633Z,99210.36
2018-08-23T14:08:13.522Z,99209.53
2018-08-23T14:09:52.907Z,99206.53
2018-08-23T14:11:30.263Z,99132.14
2018-08-23T14:13:07.012Z,99215.41
2018-08-23T14:14:46.287Z,99220.05
2018-08-23T14:16:28.787Z,99222.81
2018-08-23T14:18:15.773Z,99215.70
2018-08-23T14:19:51.837Z,99210.02
2018-08-23T14:21:27.496Z,99210.56
2018-08-23T14:23:03.368Z,99216.27
2018-08-23T14:24:39.892Z,99224.70
2018-08-23T14:26:15.506Z,99221.33
2018-08-23T14:27:51.330Z,99211.25
2018-08-23T14:29:27.471Z,99207.50
2018-08-23T14:31:03.040Z,99215.41
2018-08-23T14:32:44.067Z,99215.60
2018-08-23T14:34:20.927Z,99224.60
2018-08-23T14:35:56.798Z,99222.10
2018-08-23T14:37:32.777Z,99208.48
2018-08-23T14:39:10.088Z,99208.48
2018-08-23T14:40:47.245Z,99197.30
2018-08-23T14:42:23.119Z,99191.73
2018-08-23T14:44:00.271Z,99195.31
2018-08-23T14:45:37.105Z,99204.91
2018-08-23T14:47:18.461Z,99201.89
2018-08-23T14:48:55.015Z,99209.03
2018-08-23T14:50:31.144Z,99221.80
2018-08-23T14:52:11.018Z,99217.80
2018-08-23T14:53:49.539Z,99220.16
2018-08-23T14:55:30.814Z,99218.25
2018-08-23T14:57:14.369Z,99210.34
2018-08-23T14:58:50.232Z,99203.13
2018-08-23T15:00:26.968Z,99194.15
2018-08-23T15:02:02.636Z,99194.23
2018-08-23T15:03:38.161Z,99190.67
2018-08-23T15:05:14.369Z,99194.33
2018-08-23T15:06:52.023Z,99197.84
2018-08-23T15:08:28.762Z,99194.97
2018-08-23T15:10:07.842Z,99188.03
2018-08-23T15:11:43.793Z,99186.30
2018-08-23T15:13:19.339Z,99187.61
2018-08-23T15:14:54.965Z,99189.05
2018-08-23T15:16:30.669Z,99182.23
2018-08-23T15:18:06.434Z,99186.09
2018-08-23T15:19:41.940Z,99185.50
2018-08-23T15:21:17.439Z,99183.47
2018-08-23T15:22:53.052Z,99179.47
2018-08-23T15:24:28.614Z,99174.73
2018-08-23T15:26:04.260Z,99170.19
2018-08-23T15:27:39.744Z,99176.49
2018-08-23T15:29:15.249Z,99167.66
2018-08-23T15:30:50.808Z,99167.31
2018-08-23T15:32:26.336Z,99166.19
2018-08-23T15:34:01.842Z,99167.00
2018-08-23T15:35:37.422Z,99163.14
2018-08-23T15:37:12.984Z,99165.22
2018-08-23T15:38:48.599Z,99160.24
2018-08-23T15:40:24.140Z,99167.24
2018-08-23T15:43:41.373Z,99166.00
2018-08-23T15:45:18.392Z,99156.89
2018-08-23T15:46:54.143Z,99160.34
2018-08-23T15:48:29.643Z,99152.66
2018-08-23T15:50:05.190Z,99150.24
2018-08-23T15:51:41.359Z,99152.58
2018-08-23T15:53:17.253Z,99151.17
2018-08-23T15:54:52.852Z,99151.84
2018-08-23T15:56:28.439Z,99150.19
2018-08-23T15:58:04.124Z,99153.71
2018-08-23T15:59:39.599Z,99142.55
2018-08-23T16:01:15.160Z,99136.48
2018-08-23T16:02:53.620Z,99144.47
2018-08-23T16:04:29.205Z,99132.59
2018-08-23T16:06:04.779Z,99131.23
2018-08-23T16:07:40.334Z,99132.06
2018-08-23T16:09:16.415Z,99136.94
2018-08-23T16:10:51.938Z,99137.23
2018-08-23T16:12:27.523Z,99131.53
2018-08-23T16:14:03.484Z,99124.06
2018-08-23T16:15:39.128Z,99120.07
2018-08-23T16:17:20.035Z,99112.14
2018-08-23T16:19:01.125Z,99106.09
2018-08-23T16:20:42.045Z,99111.13
2018-08-23T16:22:17.669Z,99106.08
2018-08-23T16:23:53.364Z,99099.44
2018-08-23T16:25:28.909Z,99096.71
2018-08-23T16:27:05.609Z,99096.49
2018-08-23T16:28:41.147Z,99093.71
2018-08-23T16:30:16.714Z,99092.49
2018-08-23T16:31:52.331Z,99085.02
2018-08-23T16:33:27.822Z,99075.43
2018-08-23T16:35:03.407Z,99072.41
2018-08-23T16:36:39.153Z,99064.06
2018-08-23T16:38:14.651Z,99063.84
2018-08-23T16:39:50.143Z,99057.28
2018-08-23T16:41:31.639Z,99064.33
2018-08-23T16:43:08.432Z,99061.91
2018-08-23T16:44:44.001Z,99059.02
2018-08-23T16:46:19.587Z,99059.44
2018-08-23T16:47:55.112Z,99060.37
2018-08-23T16:49:30.696Z,99061.05
2018-08-23T16:51:06.419Z,99052.84
2018-08-23T16:52:42.089Z,99052.45
2018-08-23T16:54:18.021Z,99051.34
2018-08-23T16:55:53.537Z,99047.81
2018-08-23T16:57:29.197Z,99036.48
2018-08-23T16:59:04.896Z,99026.70
2018-08-23T17:00:40.451Z,99025.21
2018-08-23T17:02:15.986Z,99024.47
2018-08-23T17:03:54.629Z,99031.69
2018-08-23T17:05:30.188Z,99034.45
2018-08-23T17:07:06.505Z,99024.95
2018-08-23T17:08:42.049Z,99027.13
2018-08-23T17:10:18.023Z,99035.78
2018-08-23T17:11:53.713Z,99041.41
2018-08-23T17:13:35.179Z,99043.77
2018-08-23T17:15:15.163Z,99035.72
2018-08-23T17:16:56.446Z,99030.73
2018-08-23T17:18:32.888Z,99032.61
2018-08-23T17:20:10.496Z,99029.48
2018-08-23T17:21:46.545Z,99027.33
2018-08-23T17:23:23.125Z,99028.56
2018-08-23T17:24:59.824Z,99029.23
2018-08-23T17:26:35.744Z,99031.77
2018-08-23T17:28:11.662Z,99028.41
2018-08-23T17:29:48.069Z,99027.09
2018-08-23T17:31:24.252Z,99031.26
2018-08-23T17:32:59.743Z,99031.27
2018-08-23T17:34:36.198Z,99029.55
2018-08-23T17:36:11.702Z,99023.72
2018-08-23T17:37:48.550Z,99027.31
2018-08-23T17:39:24.786Z,99025.58
2018-08-23T17:41:00.649Z,99025.88
2018-08-23T17:42:41.455Z,99029.73
2018-08-23T17:44:17.112Z,99021.08
2018-08-23T17:45:52.670Z,99025.95
2018-08-23T17:47:28.200Z,99026.19
2018-08-23T17:49:04.051Z,99023.52
2018-08-23T17:50:39.624Z,99024.77
2018-08-23T17:52:15.220Z,99023.09
2018-08-23T17:53:50.838Z,99025.55
2018-08-23T17:55:37.419Z,99023.30
2018-08-23T17:57:13.381Z,99019.33
2018-08-23T17:58:48.962Z,99019.56
2018-08-23T18:00:25.623Z,99018.06
2018-08-23T18:02:02.973Z,99022.42
2018-08-23T18:03:38.734Z,99029.98
2018-08-23T18:05:14.320Z,99032.42
2018-08-23T18:06:53.318Z,99024.88
2018-08-23T18:08:29.052Z,99028.20
2018-08-23T18:10:08.134Z,99020.58
2018-08-23T18:11:44.447Z,99024.34
2018-08-23T18:13:27.409Z,99021.25
2018-08-23T18:15:10.839Z,99025.55
2018-08-23T18:16:55.631Z,99017.56
2018-08-23T18:18:38.665Z,99022.08
2018-08-23T18:20:14.573Z,99021.08
2018-08-23T18:21:51.918Z,99020.16
2018-08-23T18:23:27.821Z,99020.16
2018-08-23T18:25:04.751Z,99010.91
2018-08-23T18:26:43.242Z,99012.20
2018-08-23T18:28:22.618Z,99000.32
2018-08-23T18:30:00.155Z,98998.80
2018-08-23T18:31:38.567Z,99011.55
2018-08-23T19:25:07.517Z,99023.38
2018-08-23T19:26:43.715Z,99032.33
2018-08-23T19:30:03.024Z,99031.32
2018-08-23T19:31:40.178Z,99030.89
2018-08-23T19:33:17.912Z,99030.92
2018-08-23T19:34:54.088Z,99034.79
2018-08-23T19:36:30.636Z,99034.09
2018-08-23T19:38:07.891Z,99031.52
2018-08-23T19:39:44.671Z,99028.32
2018-08-23T19:41:20.732Z,99029.23
2018-08-23T19:42:58.777Z,99023.98
2018-08-23T19:44:40.009Z,99026.64
2018-08-23T19:46:22.819Z,99026.04
2018-08-23T19:47:58.887Z,99019.42
2018-08-23T19:49:41.879Z,99024.89
2018-08-23T19:51:18.963Z,99017.06
2018-08-23T19:52:54.898Z,99025.73
2018-08-23T19:54:31.558Z,99026.13
2018-08-23T19:56:09.025Z,99024.27
2018-08-23T19:57:44.950Z,99021.53
2018-08-23T19:59:20.659Z,99027.72
2018-08-23T20:00:56.598Z,99023.04
2018-08-23T20:02:32.782Z,99022.65
2018-08-23T20:04:08.905Z,99028.53
2018-08-23T20:05:52.960Z,99021.29
2018-08-23T20:07:29.517Z,99030.70
2018-08-23T20:09:11.252Z,99030.48
2018-08-23T20:10:49.452Z,99035.97
2018-08-23T20:12:32.640Z,99037.18
2018-08-23T20:14:09.231Z,99034.81
2018-08-23T20:15:46.984Z,99028.13
2018-08-23T20:17:22.556Z,99025.51
2018-08-23T20:18:58.312Z,99024.46
2018-08-23T20:20:38.194Z,99022.83
2018-08-23T20:22:14.067Z,99025.11
2018-08-23T20:23:49.844Z,99021.98
2018-08-23T20:25:32.044Z,99011.40
2018-08-23T20:29:08.951Z,99010.67
2018-08-23T20:30:45.041Z,99009.05
2018-08-23T20:32:21.452Z,99010.66
2018-08-23T20:34:00.235Z,99014.90
2018-08-23T20:35:36.303Z,99011.48
2018-08-23T20:37:13.038Z,99012.41
2018-08-23T20:38:48.719Z,99012.19
2018-08-23T20:40:25.318Z,99014.17
2018-08-23T20:42:00.892Z,99009.52
2018-08-23T20:43:36.406Z,99006.61
2018-08-23T20:45:21.293Z,99009.30
2018-08-23T20:46:56.966Z,99006.62
2018-08-23T20:48:33.732Z,99006.92
2018-08-23T20:50:09.403Z,99011.70
2018-08-23T20:51:44.984Z,99010.25
2018-08-23T20:53:20.556Z,99003.23
2018-08-23T20:54:56.152Z,99007.45
2018-08-23T20:56:31.802Z,99006.32
2018-08-23T20:58:09.879Z,99004.25
2018-08-23T20:59:45.394Z,99003.86
2018-08-23T21:01:20.982Z,99001.77
2018-08-23T21:02:56.573Z,99007.25
2018-08-23T21:04:32.633Z,98999.73
2018-08-23T21:06:09.036Z,99014.65
2018-08-23T21:07:44.736Z,99010.41
2018-08-23T21:09:21.938Z,99014.55
2018-08-23T21:10:57.482Z,99015.78
2018-08-23T21:12:34.812Z,99006.50
2018-08-23T21:14:11.073Z,99012.66
2018-08-23T21:15:49.614Z,99007.70
2018-08-23T21:17:25.423Z,99011.22
2018-08-23T21:19:01.886Z,99009.19
2018-08-23T21:20:37.552Z,99005.53
2018-08-23T21:22:13.563Z,99014.12
2018-08-23T21:23:49.164Z,99011.62
2018-08-23T21:25:24.762Z,99007.16
2018-08-23T21:27:00.308Z,99010.43
2018-08-23T21:28:36.262Z,99010.64
2018-08-23T21:30:11.985Z,99007.86
2018-08-23T21:31:47.537Z,99015.20
2018-08-23T21:33:23.116Z,99018.91
2018-08-23T21:34:58.644Z,99019.19
2018-08-23T21:36:34.248Z,99013.11
2018-08-23T21:38:09.796Z,99015.09
2018-08-23T21:39:45.300Z,99016.15
2018-08-23T21:41:20.824Z,99018.53
2018-08-23T21:42:56.618Z,99015.45
2018-08-23T21:44:34.066Z,99007.70
2018-08-23T21:46:10.568Z,99011.00
2018-08-23T21:47:46.316Z,99014.12
2018-08-23T21:49:22.075Z,99017.09
2018-08-23T21:50:58.311Z,99011.44
2018-08-23T21:52:34.532Z,99010.82
2018-08-23T21:54:12.362Z,99019.48
2018-08-23T21:55:48.751Z,99013.10
2018-08-23T21:57:24.595Z,99012.80
2018-08-23T21:59:03.885Z,99013.13
2018-08-23T22:00:45.955Z,99016.08
2018-08-23T22:02:22.470Z,99008.65
2018-08-23T22:03:58.204Z,99001.45
2018-08-23T22:05:34.444Z,99001.65
2018-08-23T22:07:10.058Z,99001.55
2018-08-23T22:08:45.695Z,99005.86
2018-08-23T22:10:22.755Z,98998.33
2018-08-23T22:11:58.615Z,98992.38
2018-08-23T22:13:34.205Z,98993.90
2018-08-23T22:15:11.064Z,98991.97
2018-08-23T22:16:46.779Z,98988.03
2018-08-23T22:18:22.890Z,98983.93
2018-08-23T22:19:58.495Z,98979.39
2018-08-23T22:21:34.155Z,98979.08
2018-08-23T22:23:09.783Z,98984.54
2018-08-23T22:24:45.382Z,98979.71
2018-08-23T22:26:33.376Z,98976.63
2018-08-23T22:28:09.207Z,98969.97
2018-08-23T22:29:45.651Z,98971.63
2018-08-23T22:31:22.456Z,98959.42
2018-08-23T22:32:57.986Z,98965.08
2018-08-23T22:34:33.526Z,98960.62
2018-08-23T22:36:09.108Z,98962.04
2018-08-23T22:37:44.679Z,98958.85
2018-08-23T22:39:20.392Z,98959.40
2018-08-23T22:40:55.946Z,98953.92
2018-08-23T22:42:31.442Z,98953.42
2018-08-23T22:44:07.077Z,98956.85
2018-08-23T22:45:42.723Z,98949.77
2018-08-23T22:47:18.439Z,98953.45
2018-08-23T22:48:53.971Z,98950.45
2018-08-23T22:50:29.511Z,98950.31
2018-08-23T22:52:05.310Z,98944.73
2018-08-23T22:53:42.755Z,98946.00
2018-08-23T22:55:19.110Z,98946.11
2018-08-23T22:56:54.622Z,98943.10
2018-08-23T22:58:30.670Z,98944.11
2018-08-23T23:00:06.803Z,98942.66
2018-08-23T23:01:42.513Z,98940.99
2018-08-23T23:03:23.825Z,98940.78
2018-08-23T23:04:59.740Z,98948.58
2018-08-23T23:06:35.310Z,98944.19
2018-08-23T23:08:10.943Z,98952.17
2018-08-23T23:09:46.830Z,98959.07
2018-08-23T23:11:23.908Z,98966.15
2018-08-23T23:12:59.698Z,98971.88
2018-08-23T23:14:35.220Z,98970.13
2018-08-23T23:16:10.900Z,98969.22
2018-08-23T23:17:46.432Z,98971.72
2018-08-23T23:19:23.226Z,98972.17
2018-08-23T23:20:58.798Z,98963.76
2018-08-23T23:22:34.433Z,98960.98
2018-08-23T23:24:15.540Z,98955.23
2018-08-23T23:25:51.450Z,98952.66
2018-08-23T23:27:27.064Z,98952.79
2018-08-23T23:29:02.761Z,98950.59
2018-08-23T23:30:38.323Z,98948.27
2018-08-23T23:32:14.106Z,98947.08
2018-08-23T23:33:49.714Z,98933.81
2018-08-23T23:35:27.187Z,98938.00
2018-08-23T23:37:02.754Z,98939.08
2018-08-23T23:38:38.314Z,98942.56
2018-08-23T23:40:14.919Z,98939.27
2018-08-23T23:41:50.797Z,98938.45
2018-08-23T23:43:26.371Z,98934.54
2018-08-23T23:45:01.912Z,98931.64
2018-08-23T23:46:37.443Z,98939.05
2018-08-23T23:48:14.615Z,98926.48
2018-08-23T23:49:50.260Z,98940.38
2018-08-23T23:51:26.155Z,98933.63
2018-08-23T23:53:01.695Z,98936.66
2018-08-23T23:54:37.227Z,98932.25
2018-08-23T23:56:12.972Z,98936.83
2018-08-23T23:57:48.581Z,98932.25
2018-08-23T23:59:24.329Z,98932.47
